sensor_id;sensor_type;location;lat;lon;timestamp;pressure;altitude;pressure_sealevel;temperature;humidity
48402;BME280;65988;52.422;16.746;2023-06-22T00:00:23;100827.41;;;37.16;41.10
48402;BME280;65988;52.422;16.746;2023-06-22T00:02:51;100674.28;;;36.31;41.08
48402;BME280;65988;52.422;16.746;2023-06-22T00:05:52;100641.00;;;36.59;40.37
48402;BME280;65988;52.422;16.746;2023-06-22T00:08:38;100760.59;;;36.78;41.00
48402;BME280;65988;52.422;16.746;2023-06-22T00:11:15;100747.41;;;36.35;41.13
48402;BME280;65988;52.422;16.746;2023-06-22T00:13:57;100761.31;;;36.45;40.79
48402;BME280;65988;52.422;16.746;2023-06-22T00:16:36;100812.97;;;36.27;41.55
48402;BME280;65988;52.422;16.746;2023-06-22T00:19:07;100824.84;;;36.05;42.01
48402;BME280;65988;52.422;16.746;2023-06-22T00:22:08;100817.03;;;36.45;41.11
48402;BME280;65988;52.422;16.746;2023-06-22T00:24:39;100776.03;;;36.50;41.17
48402;BME280;65988;52.422;16.746;2023-06-22T00:27:07;100613.16;;;35.70;41.13
48402;BME280;65988;52.422;16.746;2023-06-22T00:29:45;100791.38;;;36.49;40.64
48402;BME280;65988;52.422;16.746;2023-06-22T00:32:13;100765.75;;;36.25;41.13
48402;BME280;65988;52.422;16.746;2023-06-22T00:34:59;100619.94;;;36.01;40.44
48402;BME280;65988;52.422;16.746;2023-06-22T00:37:45;100741.19;;;36.00;41.11
48402;BME280;65988;52.422;16.746;2023-06-22T00:40:15;100708.94;;;35.36;41.48
48402;BME280;65988;52.422;16.746;2023-06-22T00:42:55;100792.16;;;36.08;40.90
48402;BME280;65988;52.422;16.746;2023-06-22T00:45:23;100817.84;;;36.10;41.26
48402;BME280;65988;52.422;16.746;2023-06-22T00:48:00;100820.78;;;36.57;40.75
48402;BME280;65988;52.422;16.746;2023-06-22T00:50:33;100745.19;;;35.75;41.75
48402;BME280;65988;52.422;16.746;2023-06-22T00:53:23;100838.97;;;35.57;42.16
48402;BME280;65988;52.422;16.746;2023-06-22T00:55:53;100813.81;;;35.43;41.98
48402;BME280;65988;52.422;16.746;2023-06-22T00:58:24;100788.38;;;34.81;42.46
48402;BME280;65988;52.422;16.746;2023-06-22T01:00:55;100627.72;;;33.59;43.42
48402;BME280;65988;52.422;16.746;2023-06-22T01:03:36;100795.63;;;35.23;42.02
48402;BME280;65988;52.422;16.746;2023-06-22T01:06:10;100877.25;;;35.37;42.55
48402;BME280;65988;52.422;16.746;2023-06-22T01:08:57;100854.03;;;35.79;41.20
48402;BME280;65988;52.422;16.746;2023-06-22T01:11:37;100750.13;;;34.42;42.66
48402;BME280;65988;52.422;16.746;2023-06-22T01:14:40;100827.81;;;35.60;41.89
48402;BME280;65988;52.422;16.746;2023-06-22T01:17:18;100846.97;;;36.00;41.34
48402;BME280;65988;52.422;16.746;2023-06-22T01:20:05;100597.59;;;35.59;40.28
48402;BME280;65988;52.422;16.746;2023-06-22T01:22:45;100768.88;;;35.87;40.48
48402;BME280;65988;52.422;16.746;2023-06-22T01:25:20;100730.09;;;35.46;41.09
48402;BME280;65988;52.422;16.746;2023-06-22T01:28:12;100843.72;;;36.11;41.08
48402;BME280;65988;52.422;16.746;2023-06-22T01:30:51;100807.19;;;35.24;41.76
48402;BME280;65988;52.422;16.746;2023-06-22T01:33:35;100770.56;;;34.79;41.65
48402;BME280;65988;52.422;16.746;2023-06-22T01:36:04;100828.44;;;35.84;40.83
48402;BME280;65988;52.422;16.746;2023-06-22T01:38:39;100831.53;;;36.16;40.12
48402;BME280;65988;52.422;16.746;2023-06-22T01:41:07;100756.16;;;35.45;41.06
48402;BME280;65988;52.422;16.746;2023-06-22T01:43:40;100823.53;;;35.94;40.71
48402;BME280;65988;52.422;16.746;2023-06-22T01:46:06;100718.91;;;35.21;41.04
48402;BME280;65988;52.422;16.746;2023-06-22T01:48:33;100745.00;;;35.27;41.24
48402;BME280;65988;52.422;16.746;2023-06-22T01:50:59;100667.38;;;35.10;40.94
48402;BME280;65988;52.422;16.746;2023-06-22T01:53:28;100741.13;;;35.08;41.56
48402;BME280;65988;52.422;16.746;2023-06-22T01:55:53;100621.22;;;34.35;42.42
48402;BME280;65988;52.422;16.746;2023-06-22T01:58:20;100873.00;;;34.47;43.28
48402;BME280;65988;52.422;16.746;2023-06-22T02:01:17;100891.97;;;34.60;43.00
48402;BME280;65988;52.422;16.746;2023-06-22T02:04:02;100780.75;;;34.33;42.74
48402;BME280;65988;52.422;16.746;2023-06-22T02:06:39;100891.78;;;35.43;41.63
48402;BME280;65988;52.422;16.746;2023-06-22T02:09:13;100842.38;;;35.07;42.06
48402;BME280;65988;52.422;16.746;2023-06-22T02:11:41;100830.41;;;34.73;42.16
48402;BME280;65988;52.422;16.746;2023-06-22T02:14:10;100881.41;;;35.40;41.16
48402;BME280;65988;52.422;16.746;2023-06-22T02:16:40;100684.13;;;34.69;40.89
48402;BME280;65988;52.422;16.746;2023-06-22T02:19:19;100790.75;;;35.55;40.44
48402;BME280;65988;52.422;16.746;2023-06-22T02:22:03;100811.53;;;35.03;41.09
48402;BME280;65988;52.422;16.746;2023-06-22T02:24:31;100765.13;;;34.73;41.34
48402;BME280;65988;52.422;16.746;2023-06-22T02:27:02;100822.47;;;34.80;41.44
48402;BME280;65988;52.422;16.746;2023-06-22T02:29:28;100774.38;;;34.34;41.68
48402;BME280;65988;52.422;16.746;2023-06-22T02:32:01;100849.69;;;35.13;41.36
48402;BME280;65988;52.422;16.746;2023-06-22T02:34:37;100785.81;;;35.16;40.86
48402;BME280;65988;52.422;16.746;2023-06-22T02:37:09;100821.00;;;34.99;41.68
48402;BME280;65988;52.422;16.746;2023-06-22T02:39:36;100857.56;;;34.34;42.70
48402;BME280;65988;52.422;16.746;2023-06-22T02:42:02;100805.72;;;34.18;42.71
48402;BME280;65988;52.422;16.746;2023-06-22T02:44:28;100653.41;;;33.84;42.26
48402;BME280;65988;52.422;16.746;2023-06-22T02:46:58;100846.34;;;34.30;42.84
48402;BME280;65988;52.422;16.746;2023-06-22T02:49:29;100947.41;;;35.12;42.31
48402;BME280;65988;52.422;16.746;2023-06-22T02:51:54;100723.22;;;33.90;42.97
48402;BME280;65988;52.422;16.746;2023-06-22T02:54:42;100707.66;;;33.86;42.85
48402;BME280;65988;52.422;16.746;2023-06-22T02:57:10;100699.88;;;33.61;43.52
48402;BME280;65988;52.422;16.746;2023-06-22T02:59:47;100782.56;;;33.49;43.69
48402;BME280;65988;52.422;16.746;2023-06-22T03:02:12;100856.44;;;34.28;43.25
48402;BME280;65988;52.422;16.746;2023-06-22T03:04:40;100858.84;;;34.53;42.80
48402;BME280;65988;52.422;16.746;2023-06-22T03:07:10;100870.63;;;34.52;42.94
48402;BME280;65988;52.422;16.746;2023-06-22T03:09:39;100655.88;;;33.40;43.67
48402;BME280;65988;52.422;16.746;2023-06-22T03:12:04;100791.16;;;33.83;43.24
48402;BME280;65988;52.422;16.746;2023-06-22T03:14:30;100702.19;;;33.64;43.13
48402;BME280;65988;52.422;16.746;2023-06-22T03:16:58;100714.81;;;33.40;43.36
48402;BME280;65988;52.422;16.746;2023-06-22T03:19:28;100864.56;;;34.35;42.22
48402;BME280;65988;52.422;16.746;2023-06-22T03:21:55;100770.09;;;34.24;41.99
48402;BME280;65988;52.422;16.746;2023-06-22T03:24:20;100727.09;;;34.03;42.14
48402;BME280;65988;52.422;16.746;2023-06-22T03:26:52;100848.63;;;34.93;41.65
48402;BME280;65988;52.422;16.746;2023-06-22T03:29:22;100888.81;;;35.01;41.99
48402;BME280;65988;52.422;16.746;2023-06-22T03:31:50;100739.44;;;34.49;42.30
48402;BME280;65988;52.422;16.746;2023-06-22T03:34:18;100931.69;;;35.09;42.34
48402;BME280;65988;52.422;16.746;2023-06-22T03:36:49;100938.00;;;34.72;43.02
48402;BME280;65988;52.422;16.746;2023-06-22T03:39:22;100921.56;;;35.11;42.29
48402;BME280;65988;52.422;16.746;2023-06-22T03:41:53;100741.25;;;34.11;42.72
48402;BME280;65988;52.422;16.746;2023-06-22T03:44:27;100935.22;;;34.12;43.77
48402;BME280;65988;52.422;16.746;2023-06-22T03:47:04;100965.59;;;34.95;42.94
48402;BME280;65988;52.422;16.746;2023-06-22T03:49:36;100807.38;;;34.04;43.30
48402;BME280;65988;52.422;16.746;2023-06-22T03:52:17;100943.16;;;34.05;44.05
48402;BME280;65988;52.422;16.746;2023-06-22T03:55:01;100885.44;;;34.48;43.18
48402;BME280;65988;52.422;16.746;2023-06-22T03:57:35;100974.88;;;35.08;42.91
48402;BME280;65988;52.422;16.746;2023-06-22T04:00:02;100959.16;;;35.41;42.36
48402;BME280;65988;52.422;16.746;2023-06-22T04:02:35;100914.16;;;35.72;41.35
48402;BME280;65988;52.422;16.746;2023-06-22T04:05:10;100948.34;;;36.00;41.39
48402;BME280;65988;52.422;16.746;2023-06-22T04:07:36;100773.94;;;35.25;41.68
48402;BME280;65988;52.422;16.746;2023-06-22T04:10:18;100939.47;;;36.56;40.85
48402;BME280;65988;52.422;16.746;2023-06-22T04:12:53;100888.88;;;35.66;41.24
48402;BME280;65988;52.422;16.746;2023-06-22T04:15:46;100939.94;;;35.66;42.00
48402;BME280;65988;52.422;16.746;2023-06-22T04:20:58;100828.63;;;35.60;41.74
48402;BME280;65988;52.422;16.746;2023-06-22T04:23:31;100944.16;;;36.19;41.36
48402;BME280;65988;52.422;16.746;2023-06-22T04:26:10;100930.06;;;36.17;41.01
48402;BME280;65988;52.422;16.746;2023-06-22T04:28:43;100969.47;;;36.24;41.68
48402;BME280;65988;52.422;16.746;2023-06-22T04:31:34;100940.34;;;36.06;41.42
48402;BME280;65988;52.422;16.746;2023-06-22T04:34:07;100929.31;;;35.36;42.03
48402;BME280;65988;52.422;16.746;2023-06-22T04:36:39;100977.13;;;36.49;40.83
48402;BME280;65988;52.422;16.746;2023-06-22T04:39:14;100903.09;;;36.31;40.58
48402;BME280;65988;52.422;16.746;2023-06-22T04:41:42;100985.72;;;36.66;40.70
48402;BME280;65988;52.422;16.746;2023-06-22T04:44:16;100955.41;;;36.86;40.47
48402;BME280;65988;52.422;16.746;2023-06-22T04:46:56;100957.34;;;37.05;40.10
48402;BME280;65988;52.422;16.746;2023-06-22T04:49:34;100982.88;;;37.09;40.18
48402;BME280;65988;52.422;16.746;2023-06-22T04:52:05;100890.84;;;36.71;40.06
48402;BME280;65988;52.422;16.746;2023-06-22T04:54:34;100890.66;;;35.59;41.50
48402;BME280;65988;52.422;16.746;2023-06-22T04:57:01;100935.25;;;36.18;40.59
48402;BME280;65988;52.422;16.746;2023-06-22T04:59:28;100890.66;;;36.72;39.87
48402;BME280;65988;52.422;16.746;2023-06-22T05:02:07;100818.50;;;36.54;39.70
48402;BME280;65988;52.422;16.746;2023-06-22T05:05:04;100810.59;;;36.39;39.92
48402;BME280;65988;52.422;16.746;2023-06-22T05:08:00;100877.41;;;37.32;39.11
48402;BME280;65988;52.422;16.746;2023-06-22T05:10:57;100900.50;;;37.89;38.61
48402;BME280;65988;52.422;16.746;2023-06-22T05:13:32;100849.22;;;37.42;38.58
48402;BME280;65988;52.422;16.746;2023-06-22T05:16:11;100712.53;;;37.56;37.69
48402;BME280;65988;52.422;16.746;2023-06-22T05:18:47;100787.34;;;38.07;37.52
48402;BME280;65988;52.422;16.746;2023-06-22T05:21:13;100756.28;;;37.11;38.62
48402;BME280;65988;52.422;16.746;2023-06-22T05:23:57;100650.50;;;36.35;38.46
48402;BME280;65988;52.422;16.746;2023-06-22T05:26:39;100840.53;;;37.93;37.76
48402;BME280;65988;52.422;16.746;2023-06-22T05:29:33;100808.97;;;39.62;35.61
48402;BME280;65988;52.422;16.746;2023-06-22T05:32:39;100788.81;;;38.62;36.54
48402;BME280;65988;52.422;16.746;2023-06-22T05:38:35;100727.06;;;39.48;35.81
48402;BME280;65988;52.422;16.746;2023-06-22T05:49:58;100739.56;;;38.98;35.97
48402;BME280;65988;52.422;16.746;2023-06-22T05:57:23;100795.59;;;41.44;33.49
48402;BME280;65988;52.422;16.746;2023-06-22T06:00:08;100742.75;;;40.81;34.05
48402;BME280;65988;52.422;16.746;2023-06-22T06:02:42;100789.31;;;40.78;34.28
48402;BME280;65988;52.422;16.746;2023-06-22T06:05:22;100733.03;;;40.92;33.79
48402;BME280;65988;52.422;16.746;2023-06-22T06:11:19;100737.88;;;40.41;34.29
48402;BME280;65988;52.422;16.746;2023-06-22T06:14:00;100814.84;;;41.78;33.05
48402;BME280;65988;52.422;16.746;2023-06-22T06:16:36;100825.72;;;41.12;33.83
48402;BME280;65988;52.422;16.746;2023-06-22T06:19:42;100807.47;;;40.77;33.98
48402;BME280;65988;52.422;16.746;2023-06-22T06:22:16;100792.97;;;41.26;33.31
48402;BME280;65988;52.422;16.746;2023-06-22T06:25:17;100651.16;;;40.17;33.84
48402;BME280;65988;52.422;16.746;2023-06-22T06:31:01;100805.00;;;42.82;31.78
48402;BME280;65988;52.422;16.746;2023-06-22T06:33:55;100707.22;;;41.84;32.52
48402;BME280;65988;52.422;16.746;2023-06-22T06:36:26;100777.13;;;42.17;32.80
48402;BME280;65988;52.422;16.746;2023-06-22T06:39:03;100748.63;;;42.61;31.55
48402;BME280;65988;52.422;16.746;2023-06-22T06:41:32;100834.22;;;43.72;31.31
48402;BME280;65988;52.422;16.746;2023-06-22T06:44:38;100705.41;;;43.10;31.14
48402;BME280;65988;52.422;16.746;2023-06-22T06:47:04;100808.75;;;43.27;31.38
48402;BME280;65988;52.422;16.746;2023-06-22T06:49:47;100600.72;;;42.56;30.67
48402;BME280;65988;52.422;16.746;2023-06-22T06:55:13;100648.66;;;41.88;31.20
48402;BME280;65988;52.422;16.746;2023-06-22T07:00:40;100830.31;;;43.00;30.91
48402;BME280;65988;52.422;16.746;2023-06-22T07:03:20;100791.41;;;43.67;30.58
48402;BME280;65988;52.422;16.746;2023-06-22T07:05:50;100574.69;;;42.27;30.33
48402;BME280;65988;52.422;16.746;2023-06-22T07:08:24;100725.84;;;44.13;29.73
48402;BME280;65988;52.422;16.746;2023-06-22T07:10:58;100766.06;;;44.28;29.64
48402;BME280;65988;52.422;16.746;2023-06-22T07:13:31;100620.78;;;42.89;30.29
48402;BME280;65988;52.422;16.746;2023-06-22T07:16:12;100747.66;;;43.01;30.85
48402;BME280;65988;52.422;16.746;2023-06-22T07:18:43;100607.94;;;42.34;31.35
48402;BME280;65988;52.422;16.746;2023-06-22T07:21:52;100635.63;;;42.48;30.17
48402;BME280;65988;52.422;16.746;2023-06-22T07:24:51;100572.47;;;44.13;28.16
48402;BME280;65988;52.422;16.746;2023-06-22T07:27:29;100468.81;;;43.59;27.61
48402;BME280;65988;52.422;16.746;2023-06-22T07:39:26;100490.31;;;44.64;26.92
48402;BME280;65988;52.422;16.746;2023-06-22T07:42:12;100545.06;;;44.24;27.94
48402;BME280;65988;52.422;16.746;2023-06-22T07:51:01;100505.88;;;43.16;27.99
48402;BME280;65988;52.422;16.746;2023-06-22T07:53:47;100412.22;;;44.37;27.01
48402;BME280;65988;52.422;16.746;2023-06-22T07:56:32;100560.97;;;45.28;25.99
48402;BME280;65988;52.422;16.746;2023-06-22T07:59:03;100583.47;;;45.61;26.82
48402;BME280;65988;52.422;16.746;2023-06-22T08:01:33;100538.13;;;44.87;27.14
48402;BME280;65988;52.422;16.746;2023-06-22T08:04:04;100644.19;;;46.05;26.88
48402;BME280;65988;52.422;16.746;2023-06-22T08:06:31;100439.84;;;45.30;26.19
48402;BME280;65988;52.422;16.746;2023-06-22T09:03:28;100432.91;;;46.56;23.74
48402;BME280;65988;52.422;16.746;2023-06-22T09:06:35;100508.28;;;47.83;23.69
48402;BME280;65988;52.422;16.746;2023-06-22T09:53:02;100388.28;;;49.33;21.38
48402;BME280;65988;52.422;16.746;2023-06-22T10:09:04;100408.34;;;49.81;20.49
48402;BME280;65988;52.422;16.746;2023-06-22T10:20:00;100407.13;;;49.87;19.96
48402;BME280;65988;52.422;16.746;2023-06-22T10:23:20;100510.13;;;50.78;20.67
48402;BME280;65988;52.422;16.746;2023-06-22T10:29:56;100525.94;;;51.23;20.66
48402;BME280;65988;52.422;16.746;2023-06-22T10:44:30;100403.34;;;49.17;21.48
48402;BME280;65988;52.422;16.746;2023-06-22T11:20:38;100631.41;;;52.91;20.80
48402;BME280;65988;52.422;16.746;2023-06-22T11:25:47;100415.69;;;50.55;20.83
48402;BME280;65988;52.422;16.746;2023-06-22T11:29:19;100475.06;;;51.66;20.80
48402;BME280;65988;52.422;16.746;2023-06-22T11:41:18;100382.22;;;50.25;21.26
48402;BME280;65988;52.422;16.746;2023-06-22T12:47:44;100450.19;;;50.89;21.56
48402;BME280;65988;52.422;16.746;2023-06-22T13:44:51;100134.25;;;47.04;22.21
48402;BME280;65988;52.422;16.746;2023-06-22T14:22:52;100162.50;;;45.70;23.84
48402;BME280;65988;52.422;16.746;2023-06-22T14:25:52;100147.13;;;44.98;24.26
48402;BME280;65988;52.422;16.746;2023-06-22T14:32:45;100082.06;;;42.98;25.31
48402;BME280;65988;52.422;16.746;2023-06-22T16:39:18;100201.91;;;45.27;24.73
48402;BME280;65988;52.422;16.746;2023-06-22T17:35:50;100171.22;;;43.86;25.61
48402;BME280;65988;52.422;16.746;2023-06-22T17:49:23;100127.44;;;44.08;25.27
48402;BME280;65988;52.422;16.746;2023-06-22T17:55:22;100138.44;;;43.61;26.05
48402;BME280;65988;52.422;16.746;2023-06-22T18:05:01;100120.75;;;42.72;26.57
